sensor_id;sensor_type;location;lat;lon;timestamp;pressure;altitude;pressure_sealevel;temperature
68911;BMP180;55953;51.650;-0.522;2023-07-31T00:01:55;99988.60;;;17.04
68911;BMP180;55953;51.650;-0.522;2023-07-31T00:04:23;99982.60;;;17.08
68911;BMP180;55953;51.650;-0.522;2023-07-31T00:06:51;99979.40;;;17.00
68911;BMP180;55953;51.650;-0.522;2023-07-31T00:09:18;99979.80;;;17.00
68911;BMP180;55953;51.650;-0.522;2023-07-31T00:11:46;99979.60;;;17.00
68911;BMP180;55953;51.650;-0.522;2023-07-31T00:14:14;99980.80;;;17.00
68911;BMP180;55953;51.650;-0.522;2023-07-31T00:16:42;99976.00;;;17.00
68911;BMP180;55953;51.650;-0.522;2023-07-31T00:19:10;99972.00;;;17.00
68911;BMP180;55953;51.650;-0.522;2023-07-31T00:21:37;99972.80;;;17.00
68911;BMP180;55953;51.650;-0.522;2023-07-31T00:24:05;99978.00;;;17.00
68911;BMP180;55953;51.650;-0.522;2023-07-31T00:26:33;99972.20;;;17.00
68911;BMP180;55953;51.650;-0.522;2023-07-31T00:29:01;99965.20;;;17.00
68911;BMP180;55953;51.650;-0.522;2023-07-31T00:31:29;99963.20;;;17.00
68911;BMP180;55953;51.650;-0.522;2023-07-31T00:33:57;99953.20;;;17.00
68911;BMP180;55953;51.650;-0.522;2023-07-31T00:36:25;99952.80;;;17.00
68911;BMP180;55953;51.650;-0.522;2023-07-31T00:38:52;99949.60;;;17.00
68911;BMP180;55953;51.650;-0.522;2023-07-31T00:41:20;99948.00;;;17.02
68911;BMP180;55953;51.650;-0.522;2023-07-31T00:43:49;99947.20;;;17.00
68911;BMP180;55953;51.650;-0.522;2023-07-31T00:46:16;99946.80;;;17.10
68911;BMP180;55953;51.650;-0.522;2023-07-31T00:48:44;99941.80;;;17.10
68911;BMP180;55953;51.650;-0.522;2023-07-31T00:51:12;99939.00;;;17.10
68911;BMP180;55953;51.650;-0.522;2023-07-31T00:53:42;99920.20;;;17.10
68911;BMP180;55953;51.650;-0.522;2023-07-31T00:56:12;99918.40;;;17.10
68911;BMP180;55953;51.650;-0.522;2023-07-31T00:58:40;99916.60;;;17.10
68911;BMP180;55953;51.650;-0.522;2023-07-31T01:01:08;99913.60;;;17.10
68911;BMP180;55953;51.650;-0.522;2023-07-31T01:03:36;99916.60;;;17.10
68911;BMP180;55953;51.650;-0.522;2023-07-31T01:07:02;99920.40;;;17.10
68911;BMP180;55953;51.650;-0.522;2023-07-31T01:09:49;99908.40;;;17.20
68911;BMP180;55953;51.650;-0.522;2023-07-31T01:12:17;99898.60;;;17.20
68911;BMP180;55953;51.650;-0.522;2023-07-31T01:15:05;99894.20;;;17.20
68911;BMP180;55953;51.650;-0.522;2023-07-31T01:17:34;99889.00;;;17.20
68911;BMP180;55953;51.650;-0.522;2023-07-31T01:20:08;99885.20;;;17.20
68911;BMP180;55953;51.650;-0.522;2023-07-31T01:31:07;99867.40;;;17.22
68911;BMP180;55953;51.650;-0.522;2023-07-31T01:33:39;99855.80;;;17.20
68911;BMP180;55953;51.650;-0.522;2023-07-31T01:36:07;99860.20;;;17.26
68911;BMP180;55953;51.650;-0.522;2023-07-31T01:38:36;99855.00;;;17.28
68911;BMP180;55953;51.650;-0.522;2023-07-31T01:41:03;99850.00;;;17.28
68911;BMP180;55953;51.650;-0.522;2023-07-31T01:43:31;99841.40;;;17.30
68911;BMP180;55953;51.650;-0.522;2023-07-31T01:45:59;99828.20;;;17.30
68911;BMP180;55953;51.650;-0.522;2023-07-31T01:48:26;99833.60;;;17.30
68911;BMP180;55953;51.650;-0.522;2023-07-31T01:50:54;99830.40;;;17.30
68911;BMP180;55953;51.650;-0.522;2023-07-31T01:53:22;99825.20;;;17.30
68911;BMP180;55953;51.650;-0.522;2023-07-31T01:55:51;99825.60;;;17.30
68911;BMP180;55953;51.650;-0.522;2023-07-31T01:58:18;99816.00;;;17.30
68911;BMP180;55953;51.650;-0.522;2023-07-31T02:00:47;99825.80;;;17.30
68911;BMP180;55953;51.650;-0.522;2023-07-31T02:03:14;99820.20;;;17.30
68911;BMP180;55953;51.650;-0.522;2023-07-31T02:05:47;99820.00;;;17.34
68911;BMP180;55953;51.650;-0.522;2023-07-31T02:08:16;99814.20;;;17.40
68911;BMP180;55953;51.650;-0.522;2023-07-31T02:10:44;99813.40;;;17.40
68911;BMP180;55953;51.650;-0.522;2023-07-31T02:13:11;99817.40;;;17.40
68911;BMP180;55953;51.650;-0.522;2023-07-31T02:15:39;99809.00;;;17.40
68911;BMP180;55953;51.650;-0.522;2023-07-31T02:18:07;99808.40;;;17.40
68911;BMP180;55953;51.650;-0.522;2023-07-31T02:20:35;99809.00;;;17.40
68911;BMP180;55953;51.650;-0.522;2023-07-31T02:23:03;99805.00;;;17.46
68911;BMP180;55953;51.650;-0.522;2023-07-31T02:25:31;99803.80;;;17.50
68911;BMP180;55953;51.650;-0.522;2023-07-31T02:27:59;99793.40;;;17.50
68911;BMP180;55953;51.650;-0.522;2023-07-31T02:30:26;99792.20;;;17.50
68911;BMP180;55953;51.650;-0.522;2023-07-31T02:32:54;99791.20;;;17.50
68911;BMP180;55953;51.650;-0.522;2023-07-31T02:35:22;99788.60;;;17.50
68911;BMP180;55953;51.650;-0.522;2023-07-31T02:37:50;99787.00;;;17.50
68911;BMP180;55953;51.650;-0.522;2023-07-31T02:40:19;99784.20;;;17.50
68911;BMP180;55953;51.650;-0.522;2023-07-31T02:42:47;99778.00;;;17.50
68911;BMP180;55953;51.650;-0.522;2023-07-31T02:45:15;99775.60;;;17.50
68911;BMP180;55953;51.650;-0.522;2023-07-31T02:47:43;99760.00;;;17.50
68911;BMP180;55953;51.650;-0.522;2023-07-31T02:50:10;99764.60;;;17.50
68911;BMP180;55953;51.650;-0.522;2023-07-31T02:52:38;99759.00;;;17.50
68911;BMP180;55953;51.650;-0.522;2023-07-31T02:55:06;99767.40;;;17.50
68911;BMP180;55953;51.650;-0.522;2023-07-31T02:57:34;99765.40;;;17.50
68911;BMP180;55953;51.650;-0.522;2023-07-31T03:00:03;99769.60;;;17.48
68911;BMP180;55953;51.650;-0.522;2023-07-31T03:02:33;99765.20;;;17.50
68911;BMP180;55953;51.650;-0.522;2023-07-31T03:05:02;99764.20;;;17.50
68911;BMP180;55953;51.650;-0.522;2023-07-31T03:07:29;99766.40;;;17.50
68911;BMP180;55953;51.650;-0.522;2023-07-31T03:09:57;99761.00;;;17.50
68911;BMP180;55953;51.650;-0.522;2023-07-31T03:12:26;99766.40;;;17.50
68911;BMP180;55953;51.650;-0.522;2023-07-31T03:14:54;99765.60;;;17.50
68911;BMP180;55953;51.650;-0.522;2023-07-31T03:17:33;99755.60;;;17.50
68911;BMP180;55953;51.650;-0.522;2023-07-31T03:20:01;99757.40;;;17.50
68911;BMP180;55953;51.650;-0.522;2023-07-31T03:22:29;99745.60;;;17.50
68911;BMP180;55953;51.650;-0.522;2023-07-31T03:24:57;99747.40;;;17.56
68911;BMP180;55953;51.650;-0.522;2023-07-31T03:27:24;99742.20;;;17.60
68911;BMP180;55953;51.650;-0.522;2023-07-31T03:29:53;99743.20;;;17.60
68911;BMP180;55953;51.650;-0.522;2023-07-31T03:32:21;99739.40;;;17.60
68911;BMP180;55953;51.650;-0.522;2023-07-31T03:34:49;99733.80;;;17.60
68911;BMP180;55953;51.650;-0.522;2023-07-31T03:37:17;99737.60;;;17.62
68911;BMP180;55953;51.650;-0.522;2023-07-31T03:39:45;99734.80;;;17.60
68911;BMP180;55953;51.650;-0.522;2023-07-31T03:42:12;99735.80;;;17.66
68911;BMP180;55953;51.650;-0.522;2023-07-31T03:44:40;99735.80;;;17.70
68911;BMP180;55953;51.650;-0.522;2023-07-31T03:47:09;99734.60;;;17.70
68911;BMP180;55953;51.650;-0.522;2023-07-31T03:49:37;99743.20;;;17.70
68911;BMP180;55953;51.650;-0.522;2023-07-31T03:52:06;99733.80;;;17.70
68911;BMP180;55953;51.650;-0.522;2023-07-31T03:54:34;99725.20;;;17.72
68911;BMP180;55953;51.650;-0.522;2023-07-31T03:57:02;99731.60;;;17.70
68911;BMP180;55953;51.650;-0.522;2023-07-31T03:59:30;99730.40;;;17.70
68911;BMP180;55953;51.650;-0.522;2023-07-31T04:01:57;99724.00;;;17.74
68911;BMP180;55953;51.650;-0.522;2023-07-31T04:04:25;99731.80;;;17.80
68911;BMP180;55953;51.650;-0.522;2023-07-31T04:06:53;99725.40;;;17.80
68911;BMP180;55953;51.650;-0.522;2023-07-31T04:09:21;99721.60;;;17.80
68911;BMP180;55953;51.650;-0.522;2023-07-31T04:11:48;99723.80;;;17.80
68911;BMP180;55953;51.650;-0.522;2023-07-31T04:14:16;99717.00;;;17.80
68911;BMP180;55953;51.650;-0.522;2023-07-31T04:16:44;99720.40;;;17.80
68911;BMP180;55953;51.650;-0.522;2023-07-31T04:19:12;99717.20;;;17.80
68911;BMP180;55953;51.650;-0.522;2023-07-31T04:21:44;99715.80;;;17.80
68911;BMP180;55953;51.650;-0.522;2023-07-31T04:24:11;99708.60;;;17.80
68911;BMP180;55953;51.650;-0.522;2023-07-31T04:26:39;99702.00;;;17.80
68911;BMP180;55953;51.650;-0.522;2023-07-31T04:29:07;99698.60;;;17.80
68911;BMP180;55953;51.650;-0.522;2023-07-31T04:31:35;99706.40;;;17.80
68911;BMP180;55953;51.650;-0.522;2023-07-31T04:34:06;99701.80;;;17.80
68911;BMP180;55953;51.650;-0.522;2023-07-31T04:36:34;99705.80;;;17.82
68911;BMP180;55953;51.650;-0.522;2023-07-31T04:39:02;99705.80;;;17.88
68911;BMP180;55953;51.650;-0.522;2023-07-31T04:41:30;99706.60;;;17.84
68911;BMP180;55953;51.650;-0.522;2023-07-31T04:43:58;99700.80;;;17.82
68911;BMP180;55953;51.650;-0.522;2023-07-31T04:46:26;99704.60;;;17.88
68911;BMP180;55953;51.650;-0.522;2023-07-31T04:48:54;99704.20;;;17.90
68911;BMP180;55953;51.650;-0.522;2023-07-31T04:51:22;99704.00;;;17.90
68911;BMP180;55953;51.650;-0.522;2023-07-31T04:53:51;99701.80;;;17.90
68911;BMP180;55953;51.650;-0.522;2023-07-31T04:56:18;99703.20;;;17.90
68911;BMP180;55953;51.650;-0.522;2023-07-31T04:58:46;99704.80;;;17.94
68911;BMP180;55953;51.650;-0.522;2023-07-31T05:01:14;99708.00;;;18.00
68911;BMP180;55953;51.650;-0.522;2023-07-31T05:03:42;99713.20;;;17.98
68911;BMP180;55953;51.650;-0.522;2023-07-31T05:06:10;99714.80;;;18.00
68911;BMP180;55953;51.650;-0.522;2023-07-31T05:08:38;99714.60;;;18.00
68911;BMP180;55953;51.650;-0.522;2023-07-31T05:11:05;99710.80;;;18.00
68911;BMP180;55953;51.650;-0.522;2023-07-31T05:13:34;99710.80;;;17.92
68911;BMP180;55953;51.650;-0.522;2023-07-31T05:16:01;99718.60;;;17.92
68911;BMP180;55953;51.650;-0.522;2023-07-31T05:18:30;99710.40;;;18.00
68911;BMP180;55953;51.650;-0.522;2023-07-31T05:20:58;99712.80;;;18.00
68911;BMP180;55953;51.650;-0.522;2023-07-31T05:23:26;99715.80;;;17.96
68911;BMP180;55953;51.650;-0.522;2023-07-31T05:25:53;99715.20;;;17.98
68911;BMP180;55953;51.650;-0.522;2023-07-31T05:28:21;99715.00;;;18.00
68911;BMP180;55953;51.650;-0.522;2023-07-31T05:30:49;99714.40;;;18.00
68911;BMP180;55953;51.650;-0.522;2023-07-31T05:33:17;99719.60;;;18.00
68911;BMP180;55953;51.650;-0.522;2023-07-31T05:35:45;99716.40;;;18.00
68911;BMP180;55953;51.650;-0.522;2023-07-31T05:38:13;99713.00;;;18.00
68911;BMP180;55953;51.650;-0.522;2023-07-31T05:40:42;99727.20;;;18.00
68911;BMP180;55953;51.650;-0.522;2023-07-31T05:43:10;99721.20;;;18.10
68911;BMP180;55953;51.650;-0.522;2023-07-31T05:45:38;99722.20;;;18.10
68911;BMP180;55953;51.650;-0.522;2023-07-31T05:48:08;99729.60;;;18.10
68911;BMP180;55953;51.650;-0.522;2023-07-31T05:50:36;99728.80;;;18.16
68911;BMP180;55953;51.650;-0.522;2023-07-31T05:53:06;99728.20;;;18.20
68911;BMP180;55953;51.650;-0.522;2023-07-31T05:55:35;99724.80;;;18.20
68911;BMP180;55953;51.650;-0.522;2023-07-31T05:58:03;99729.80;;;18.30
68911;BMP180;55953;51.650;-0.522;2023-07-31T06:00:31;99729.00;;;18.30
68911;BMP180;55953;51.650;-0.522;2023-07-31T06:02:59;99726.80;;;18.38
68911;BMP180;55953;51.650;-0.522;2023-07-31T06:05:27;99724.40;;;18.40
68911;BMP180;55953;51.650;-0.522;2023-07-31T06:07:58;99730.60;;;18.50
68911;BMP180;55953;51.650;-0.522;2023-07-31T06:10:26;99723.20;;;18.60
68911;BMP180;55953;51.650;-0.522;2023-07-31T06:12:54;99720.00;;;18.60
68911;BMP180;55953;51.650;-0.522;2023-07-31T06:15:21;99714.20;;;18.70
68911;BMP180;55953;51.650;-0.522;2023-07-31T06:17:49;99724.40;;;18.84
68911;BMP180;55953;51.650;-0.522;2023-07-31T06:20:17;99716.40;;;19.00
68911;BMP180;55953;51.650;-0.522;2023-07-31T06:22:45;99715.00;;;19.00
68911;BMP180;55953;51.650;-0.522;2023-07-31T06:25:13;99716.20;;;19.10
68911;BMP180;55953;51.650;-0.522;2023-07-31T06:27:42;99717.00;;;19.20
68911;BMP180;55953;51.650;-0.522;2023-07-31T06:30:11;99711.80;;;19.20
68911;BMP180;55953;51.650;-0.522;2023-07-31T06:32:39;99712.20;;;19.20
68911;BMP180;55953;51.650;-0.522;2023-07-31T06:35:08;99711.00;;;19.20
68911;BMP180;55953;51.650;-0.522;2023-07-31T06:37:36;99715.40;;;19.20
68911;BMP180;55953;51.650;-0.522;2023-07-31T06:40:05;99711.40;;;19.10
68911;BMP180;55953;51.650;-0.522;2023-07-31T06:42:36;99721.00;;;19.00
68911;BMP180;55953;51.650;-0.522;2023-07-31T06:45:04;99716.40;;;19.00
68911;BMP180;55953;51.650;-0.522;2023-07-31T06:47:32;99714.60;;;18.96
68911;BMP180;55953;51.650;-0.522;2023-07-31T06:50:00;99716.20;;;19.00
68911;BMP180;55953;51.650;-0.522;2023-07-31T06:52:28;99707.60;;;18.96
68911;BMP180;55953;51.650;-0.522;2023-07-31T06:55:23;99699.80;;;19.00
68911;BMP180;55953;51.650;-0.522;2023-07-31T06:57:54;99692.60;;;19.10
68911;BMP180;55953;51.650;-0.522;2023-07-31T07:00:23;99691.40;;;19.10
68911;BMP180;55953;51.650;-0.522;2023-07-31T07:02:51;99690.80;;;19.20
68911;BMP180;55953;51.650;-0.522;2023-07-31T07:05:19;99689.40;;;19.20
68911;BMP180;55953;51.650;-0.522;2023-07-31T07:07:50;99681.60;;;19.12
68911;BMP180;55953;51.650;-0.522;2023-07-31T07:10:19;99676.20;;;19.20
68911;BMP180;55953;51.650;-0.522;2023-07-31T07:12:47;99676.00;;;19.20
68911;BMP180;55953;51.650;-0.522;2023-07-31T07:15:15;99673.80;;;19.20
68911;BMP180;55953;51.650;-0.522;2023-07-31T07:17:43;99672.00;;;19.10
68911;BMP180;55953;51.650;-0.522;2023-07-31T07:20:11;99675.60;;;19.10
68911;BMP180;55953;51.650;-0.522;2023-07-31T07:22:39;99677.60;;;19.10
68911;BMP180;55953;51.650;-0.522;2023-07-31T07:25:07;99669.40;;;19.10
68911;BMP180;55953;51.650;-0.522;2023-07-31T07:27:35;99673.80;;;19.20
68911;BMP180;55953;51.650;-0.522;2023-07-31T07:30:05;99676.60;;;19.20
68911;BMP180;55953;51.650;-0.522;2023-07-31T07:32:33;99663.40;;;19.20
68911;BMP180;55953;51.650;-0.522;2023-07-31T07:35:01;99675.20;;;19.20
68911;BMP180;55953;51.650;-0.522;2023-07-31T07:37:29;99685.60;;;19.30
68911;BMP180;55953;51.650;-0.522;2023-07-31T07:39:56;99688.40;;;19.40
68911;BMP180;55953;51.650;-0.522;2023-07-31T07:42:25;99682.60;;;19.40
68911;BMP180;55953;51.650;-0.522;2023-07-31T07:44:52;99674.40;;;19.50
68911;BMP180;55953;51.650;-0.522;2023-07-31T07:47:20;99680.20;;;19.50
68911;BMP180;55953;51.650;-0.522;2023-07-31T07:49:48;99684.00;;;19.50
68911;BMP180;55953;51.650;-0.522;2023-07-31T07:52:20;99672.40;;;19.48
68911;BMP180;55953;51.650;-0.522;2023-07-31T07:54:47;99664.00;;;19.60
68911;BMP180;55953;51.650;-0.522;2023-07-31T07:57:15;99658.40;;;19.70
68911;BMP180;55953;51.650;-0.522;2023-07-31T07:59:43;99642.60;;;19.70
68911;BMP180;55953;51.650;-0.522;2023-07-31T08:02:11;99639.20;;;19.84
68911;BMP180;55953;51.650;-0.522;2023-07-31T08:04:39;99634.60;;;19.92
68911;BMP180;55953;51.650;-0.522;2023-07-31T08:07:07;99641.60;;;20.00
68911;BMP180;55953;51.650;-0.522;2023-07-31T08:09:35;99655.60;;;20.00
68911;BMP180;55953;51.650;-0.522;2023-07-31T08:12:03;99653.40;;;20.10
68911;BMP180;55953;51.650;-0.522;2023-07-31T08:14:31;99655.60;;;20.20
68911;BMP180;55953;51.650;-0.522;2023-07-31T08:17:00;99652.20;;;20.20
68911;BMP180;55953;51.650;-0.522;2023-07-31T08:19:28;99638.60;;;20.26
68911;BMP180;55953;51.650;-0.522;2023-07-31T08:21:56;99631.80;;;20.40
68911;BMP180;55953;51.650;-0.522;2023-07-31T08:24:25;99636.20;;;20.40
68911;BMP180;55953;51.650;-0.522;2023-07-31T08:26:53;99637.00;;;20.40
68911;BMP180;55953;51.650;-0.522;2023-07-31T08:29:20;99632.60;;;20.40
68911;BMP180;55953;51.650;-0.522;2023-07-31T08:31:48;99626.20;;;20.48
68911;BMP180;55953;51.650;-0.522;2023-07-31T08:34:16;99621.80;;;20.50
68911;BMP180;55953;51.650;-0.522;2023-07-31T08:36:44;99622.40;;;20.50
68911;BMP180;55953;51.650;-0.522;2023-07-31T08:39:11;99621.80;;;20.40
68911;BMP180;55953;51.650;-0.522;2023-07-31T08:41:39;99613.80;;;20.40
68911;BMP180;55953;51.650;-0.522;2023-07-31T08:44:07;99619.60;;;20.40
68911;BMP180;55953;51.650;-0.522;2023-07-31T08:46:36;99621.20;;;20.50
68911;BMP180;55953;51.650;-0.522;2023-07-31T08:49:05;99624.60;;;20.50
68911;BMP180;55953;51.650;-0.522;2023-07-31T08:51:36;99620.20;;;20.32
68911;BMP180;55953;51.650;-0.522;2023-07-31T08:54:05;99625.00;;;20.30
68911;BMP180;55953;51.650;-0.522;2023-07-31T08:56:33;99628.00;;;20.20
68911;BMP180;55953;51.650;-0.522;2023-07-31T08:59:03;99625.20;;;20.20
68911;BMP180;55953;51.650;-0.522;2023-07-31T09:01:40;99630.60;;;20.30
68911;BMP180;55953;51.650;-0.522;2023-07-31T09:04:12;99619.40;;;20.30
68911;BMP180;55953;51.650;-0.522;2023-07-31T09:06:42;99616.40;;;20.30
68911;BMP180;55953;51.650;-0.522;2023-07-31T09:09:11;99631.00;;;20.20
68911;BMP180;55953;51.650;-0.522;2023-07-31T09:11:39;99635.60;;;20.20
68911;BMP180;55953;51.650;-0.522;2023-07-31T09:14:08;99627.40;;;20.08
68911;BMP180;55953;51.650;-0.522;2023-07-31T09:16:55;99637.80;;;19.90
68911;BMP180;55953;51.650;-0.522;2023-07-31T09:19:32;99634.40;;;19.70
68911;BMP180;55953;51.650;-0.522;2023-07-31T09:22:01;99608.00;;;19.70
68911;BMP180;55953;51.650;-0.522;2023-07-31T09:24:32;99606.20;;;19.70
68911;BMP180;55953;51.650;-0.522;2023-07-31T09:27:01;99595.20;;;19.70
68911;BMP180;55953;51.650;-0.522;2023-07-31T09:29:29;99581.00;;;19.80
68911;BMP180;55953;51.650;-0.522;2023-07-31T09:31:57;99582.60;;;20.00
68911;BMP180;55953;51.650;-0.522;2023-07-31T09:34:37;99592.40;;;20.00
68911;BMP180;55953;51.650;-0.522;2023-07-31T09:37:08;99594.60;;;19.90
68911;BMP180;55953;51.650;-0.522;2023-07-31T09:39:46;99594.00;;;19.80
68911;BMP180;55953;51.650;-0.522;2023-07-31T09:42:25;99582.20;;;19.80
68911;BMP180;55953;51.650;-0.522;2023-07-31T09:44:53;99570.60;;;19.80
68911;BMP180;55953;51.650;-0.522;2023-07-31T09:47:24;99567.60;;;19.90
68911;BMP180;55953;51.650;-0.522;2023-07-31T09:49:53;99584.60;;;19.80
68911;BMP180;55953;51.650;-0.522;2023-07-31T09:52:21;99600.00;;;19.70
68911;BMP180;55953;51.650;-0.522;2023-07-31T09:54:49;99605.20;;;19.64
68911;BMP180;55953;51.650;-0.522;2023-07-31T09:57:18;99610.20;;;19.50
68911;BMP180;55953;51.650;-0.522;2023-07-31T09:59:52;99623.80;;;19.30
68911;BMP180;55953;51.650;-0.522;2023-07-31T10:02:23;99618.60;;;19.12
68911;BMP180;55953;51.650;-0.522;2023-07-31T10:04:56;99604.80;;;19.00
68911;BMP180;55953;51.650;-0.522;2023-07-31T10:07:29;99594.20;;;19.08
68911;BMP180;55953;51.650;-0.522;2023-07-31T10:09:59;99583.80;;;19.14
68911;BMP180;55953;51.650;-0.522;2023-07-31T10:12:32;99590.00;;;19.22
68911;BMP180;55953;51.650;-0.522;2023-07-31T10:15:03;99599.40;;;19.30
68911;BMP180;55953;51.650;-0.522;2023-07-31T10:17:34;99615.40;;;19.40
68911;BMP180;55953;51.650;-0.522;2023-07-31T10:20:04;99619.40;;;19.40
68911;BMP180;55953;51.650;-0.522;2023-07-31T10:22:35;99603.60;;;19.50
68911;BMP180;55953;51.650;-0.522;2023-07-31T10:25:03;99599.00;;;19.60
68911;BMP180;55953;51.650;-0.522;2023-07-31T10:27:32;99593.40;;;19.70
68911;BMP180;55953;51.650;-0.522;2023-07-31T10:30:04;99585.80;;;19.90
68911;BMP180;55953;51.650;-0.522;2023-07-31T10:32:35;99574.00;;;19.98
68911;BMP180;55953;51.650;-0.522;2023-07-31T10:35:04;99578.00;;;20.10
68911;BMP180;55953;51.650;-0.522;2023-07-31T10:37:41;99585.00;;;20.20
68911;BMP180;55953;51.650;-0.522;2023-07-31T10:40:19;99603.20;;;20.38
68911;BMP180;55953;51.650;-0.522;2023-07-31T10:42:54;99624.00;;;20.44
68911;BMP180;55953;51.650;-0.522;2023-07-31T10:45:37;99619.20;;;20.40
68911;BMP180;55953;51.650;-0.522;2023-07-31T10:48:13;99615.20;;;20.40
68911;BMP180;55953;51.650;-0.522;2023-07-31T10:50:56;99604.00;;;20.30
68911;BMP180;55953;51.650;-0.522;2023-07-31T10:53:33;99606.60;;;20.40
68911;BMP180;55953;51.650;-0.522;2023-07-31T10:56:07;99600.00;;;20.40
68911;BMP180;55953;51.650;-0.522;2023-07-31T10:58:37;99578.80;;;20.42
68911;BMP180;55953;51.650;-0.522;2023-07-31T11:01:06;99568.40;;;20.50
68911;BMP180;55953;51.650;-0.522;2023-07-31T11:03:48;99557.20;;;20.50
68911;BMP180;55953;51.650;-0.522;2023-07-31T11:06:18;99574.00;;;20.40
68911;BMP180;55953;51.650;-0.522;2023-07-31T11:08:49;99595.20;;;20.40
68911;BMP180;55953;51.650;-0.522;2023-07-31T11:11:20;99586.60;;;20.30
68911;BMP180;55953;51.650;-0.522;2023-07-31T11:13:51;99584.60;;;20.30
68911;BMP180;55953;51.650;-0.522;2023-07-31T11:16:24;99584.40;;;20.34
68911;BMP180;55953;51.650;-0.522;2023-07-31T11:18:53;99597.20;;;20.42
68911;BMP180;55953;51.650;-0.522;2023-07-31T11:21:25;99593.40;;;20.56
68911;BMP180;55953;51.650;-0.522;2023-07-31T11:23:56;99578.40;;;20.70
68911;BMP180;55953;51.650;-0.522;2023-07-31T11:26:28;99577.40;;;20.80
68911;BMP180;55953;51.650;-0.522;2023-07-31T11:28:55;99574.80;;;20.80
68911;BMP180;55953;51.650;-0.522;2023-07-31T11:31:23;99566.00;;;20.84
68911;BMP180;55953;51.650;-0.522;2023-07-31T11:34:05;99566.40;;;20.88
68911;BMP180;55953;51.650;-0.522;2023-07-31T11:36:34;99556.60;;;20.72
68911;BMP180;55953;51.650;-0.522;2023-07-31T11:39:07;99572.60;;;20.70
68911;BMP180;55953;51.650;-0.522;2023-07-31T11:41:35;99578.80;;;20.52
68911;BMP180;55953;51.650;-0.522;2023-07-31T11:44:03;99581.20;;;20.40
68911;BMP180;55953;51.650;-0.522;2023-07-31T11:46:51;99572.20;;;20.30
68911;BMP180;55953;51.650;-0.522;2023-07-31T11:49:18;99582.40;;;20.30
68911;BMP180;55953;51.650;-0.522;2023-07-31T11:51:47;99589.80;;;20.30
68911;BMP180;55953;51.650;-0.522;2023-07-31T11:54:14;99589.80;;;20.36
68911;BMP180;55953;51.650;-0.522;2023-07-31T11:56:43;99588.80;;;20.32
68911;BMP180;55953;51.650;-0.522;2023-07-31T11:59:11;99586.40;;;20.28
68911;BMP180;55953;51.650;-0.522;2023-07-31T12:01:40;99581.60;;;20.20
68911;BMP180;55953;51.650;-0.522;2023-07-31T12:04:08;99591.60;;;20.10
68911;BMP180;55953;51.650;-0.522;2023-07-31T12:06:37;99597.00;;;20.00
68911;BMP180;55953;51.650;-0.522;2023-07-31T12:09:06;99578.80;;;19.90
68911;BMP180;55953;51.650;-0.522;2023-07-31T12:11:47;99576.00;;;19.80
68911;BMP180;55953;51.650;-0.522;2023-07-31T12:14:23;99575.80;;;19.80
68911;BMP180;55953;51.650;-0.522;2023-07-31T12:17:00;99580.40;;;19.78
68911;BMP180;55953;51.650;-0.522;2023-07-31T12:19:28;99589.20;;;19.70
68911;BMP180;55953;51.650;-0.522;2023-07-31T12:22:13;99582.80;;;19.68
68911;BMP180;55953;51.650;-0.522;2023-07-31T12:24:44;99581.40;;;19.60
68911;BMP180;55953;51.650;-0.522;2023-07-31T12:27:14;99588.40;;;19.60
68911;BMP180;55953;51.650;-0.522;2023-07-31T12:29:42;99584.40;;;19.60
68911;BMP180;55953;51.650;-0.522;2023-07-31T12:32:23;99577.20;;;19.60
68911;BMP180;55953;51.650;-0.522;2023-07-31T12:35:00;99571.40;;;19.60
68911;BMP180;55953;51.650;-0.522;2023-07-31T12:37:29;99564.60;;;19.60
68911;BMP180;55953;51.650;-0.522;2023-07-31T12:39:57;99562.60;;;19.50
68911;BMP180;55953;51.650;-0.522;2023-07-31T12:42:30;99560.40;;;19.40
68911;BMP180;55953;51.650;-0.522;2023-07-31T12:44:58;99553.80;;;19.40
68911;BMP180;55953;51.650;-0.522;2023-07-31T12:47:26;99564.60;;;19.30
68911;BMP180;55953;51.650;-0.522;2023-07-31T12:49:54;99554.00;;;19.30
68911;BMP180;55953;51.650;-0.522;2023-07-31T12:52:22;99548.40;;;19.30
68911;BMP180;55953;51.650;-0.522;2023-07-31T12:54:50;99540.40;;;19.22
68911;BMP180;55953;51.650;-0.522;2023-07-31T12:57:18;99534.60;;;19.20
68911;BMP180;55953;51.650;-0.522;2023-07-31T12:59:45;99533.20;;;19.18
68911;BMP180;55953;51.650;-0.522;2023-07-31T13:02:13;99534.80;;;19.24
68911;BMP180;55953;51.650;-0.522;2023-07-31T13:04:41;99532.60;;;19.30
68911;BMP180;55953;51.650;-0.522;2023-07-31T13:07:08;99540.60;;;19.30
68911;BMP180;55953;51.650;-0.522;2023-07-31T13:09:36;99549.00;;;19.30
68911;BMP180;55953;51.650;-0.522;2023-07-31T13:12:05;99536.00;;;19.18
68911;BMP180;55953;51.650;-0.522;2023-07-31T13:14:33;99536.80;;;19.00
68911;BMP180;55953;51.650;-0.522;2023-07-31T13:17:01;99538.20;;;18.90
68911;BMP180;55953;51.650;-0.522;2023-07-31T13:19:31;99527.80;;;18.80
68911;BMP180;55953;51.650;-0.522;2023-07-31T13:21:59;99521.20;;;18.78
68911;BMP180;55953;51.650;-0.522;2023-07-31T13:24:27;99504.60;;;18.70
68911;BMP180;55953;51.650;-0.522;2023-07-31T13:26:56;99500.20;;;18.70
68911;BMP180;55953;51.650;-0.522;2023-07-31T13:29:24;99502.20;;;18.70
68911;BMP180;55953;51.650;-0.522;2023-07-31T13:31:53;99507.60;;;18.72
68911;BMP180;55953;51.650;-0.522;2023-07-31T13:34:21;99516.20;;;18.70
68911;BMP180;55953;51.650;-0.522;2023-07-31T13:36:49;99509.80;;;18.70
68911;BMP180;55953;51.650;-0.522;2023-07-31T13:39:16;99494.40;;;18.70
68911;BMP180;55953;51.650;-0.522;2023-07-31T13:41:44;99507.20;;;18.70
68911;BMP180;55953;51.650;-0.522;2023-07-31T13:44:12;99528.00;;;18.70
68911;BMP180;55953;51.650;-0.522;2023-07-31T13:46:39;99543.00;;;18.50
68911;BMP180;55953;51.650;-0.522;2023-07-31T13:49:08;99540.60;;;18.40
68911;BMP180;55953;51.650;-0.522;2023-07-31T13:51:35;99531.00;;;18.30
68911;BMP180;55953;51.650;-0.522;2023-07-31T13:54:03;99509.80;;;18.24
68911;BMP180;55953;51.650;-0.522;2023-07-31T13:56:31;99526.00;;;18.20
68911;BMP180;55953;51.650;-0.522;2023-07-31T13:58:59;99512.00;;;18.10
68911;BMP180;55953;51.650;-0.522;2023-07-31T14:01:28;99479.00;;;18.10
68911;BMP180;55953;51.650;-0.522;2023-07-31T14:03:56;99513.60;;;18.10
68911;BMP180;55953;51.650;-0.522;2023-07-31T14:06:24;99501.20;;;18.10
68911;BMP180;55953;51.650;-0.522;2023-07-31T14:08:51;99489.20;;;18.20
68911;BMP180;55953;51.650;-0.522;2023-07-31T14:11:19;99534.20;;;18.20
68911;BMP180;55953;51.650;-0.522;2023-07-31T14:13:47;99522.20;;;18.10
68911;BMP180;55953;51.650;-0.522;2023-07-31T14:16:15;99529.20;;;18.10
68911;BMP180;55953;51.650;-0.522;2023-07-31T14:18:43;99516.40;;;18.00